Time;durP1;ratioP1;P1;durP2;ratioP2;P2;SDS_P1;SDS_P2;PMS_P1;PMS_P2;Temp;Humidity;BMP_temperature;BMP_pressure;BME280_temperature;BME280_humidity;BME280_pressure;Samples;Min_cycle;Max_cycle;Signal;HPM_P1;HPM_P2
2022/03/19 00:00:32;;;;;;;2.30;0.83;;;13.50;99.90;;;;;;6131897;23;20189;-94
2022/03/19 00:03:05;;;;;;;2.93;1.10;;;13.60;99.90;;;;;;6132149;23;20209;-93
2022/03/19 00:05:36;;;;;;;2.07;0.90;;;13.30;99.90;;;;;;6134539;23;20212;-93
2022/03/19 00:08:07;;;;;;;1.50;1.03;;;13.30;99.90;;;;;;6108397;23;20183;-93
2022/03/19 00:10:39;;;;;;;2.93;1.10;;;13.20;99.90;;;;;;6108495;23;20205;-93
2022/03/19 00:13:12;;;;;;;2.07;1.07;;;13.20;99.90;;;;;;6148224;23;20166;-93
2022/03/19 00:15:44;;;;;;;3.27;0.90;;;13.30;99.90;;;;;;6135260;23;20214;-94
2022/03/19 00:18:16;;;;;;;8.53;1.60;;;13.00;99.90;;;;;;6119424;23;20202;-93
2022/03/19 00:20:47;;;;;;;3.50;1.10;;;13.10;99.90;;;;;;6153295;23;20167;-94
2022/03/19 00:23:18;;;;;;;2.60;0.80;;;13.00;99.90;;;;;;6153598;23;20219;-93
2022/03/19 00:25:50;;;;;;;2.00;0.93;;;13.10;99.90;;;;;;6114503;23;20214;-93
2022/03/19 00:28:23;;;;;;;1.63;0.77;;;13.10;99.90;;;;;;6116017;23;20179;-93
2022/03/19 00:30:59;;;;;;;2.87;0.90;;;12.70;99.90;;;;;;6132469;23;20189;-94
2022/03/19 00:33:31;;;;;;;1.70;1.07;;;12.40;99.90;;;;;;6109177;23;20166;-94
2022/03/19 00:36:03;;;;;;;1.40;0.80;;;12.50;99.90;;;;;;6134313;23;20186;-94
2022/03/19 00:38:34;;;;;;;1.57;1.00;;;12.30;99.90;;;;;;6131274;23;20249;-93
2022/03/19 00:41:06;;;;;;;1.47;1.07;;;12.10;99.90;;;;;;6131406;23;20198;-93
2022/03/19 00:43:39;;;;;;;1.73;0.93;;;12.10;99.90;;;;;;6131928;23;20173;-93
2022/03/19 00:46:11;;;;;;;1.87;1.33;;;12.20;99.90;;;;;;6148105;23;20194;-93
2022/03/19 00:48:45;;;;;;;5.23;1.13;;;12.30;99.90;;;;;;6152548;23;20175;-92
2022/03/19 00:51:17;;;;;;;1.43;0.83;;;12.20;99.90;;;;;;6140573;23;20215;-94
2022/03/19 00:53:50;;;;;;;1.63;1.03;;;12.00;99.90;;;;;;6147885;23;20477;-94
2022/03/19 00:56:21;;;;;;;1.10;0.80;;;12.00;99.90;;;;;;6152478;23;20175;-92
2022/03/19 00:59:14;;;;;;;4.00;0.90;;;12.10;99.90;;;;;;6147331;23;20209;-93
2022/03/19 01:01:48;;;;;;;1.00;0.83;;;12.10;99.90;;;;;;6147020;23;20266;-93
2022/03/19 01:04:22;;;;;;;1.43;0.73;;;12.10;99.90;;;;;;6145911;23;20233;-93
2022/03/19 01:06:55;;;;;;;1.67;0.90;;;12.20;99.90;;;;;;6144626;23;20189;-93
2022/03/19 01:09:30;;;;;;;1.50;0.80;;;12.20;99.90;;;;;;6145231;23;20186;-93
2022/03/19 01:12:02;;;;;;;1.10;0.90;;;12.20;99.90;;;;;;6148962;23;20166;-93
2022/03/19 01:14:53;;;;;;;1.00;0.80;;;12.20;99.90;;;;;;6146626;23;20189;-94
2022/03/19 01:17:41;;;;;;;0.70;0.63;;;12.20;99.90;;;;;;6127411;23;20185;-93
2022/03/19 01:20:26;;;;;;;1.10;0.97;;;12.30;99.90;;;;;;6152441;23;20167;-94
2022/03/19 01:22:57;;;;;;;1.40;0.90;;;12.30;99.90;;;;;;6149275;23;20211;-94
2022/03/19 01:25:29;;;;;;;1.33;1.00;;;12.20;99.90;;;;;;6145830;23;20202;-93
2022/03/19 01:30:43;;;;;;;3.23;0.97;;;12.10;99.90;;;;;;6122087;23;20230;-94
2022/03/19 01:33:14;;;;;;;2.10;1.00;;;12.00;99.90;;;;;;6122906;23;20167;-93
2022/03/19 01:35:46;;;;;;;3.03;1.20;;;11.80;99.90;;;;;;6122509;23;20179;-93
2022/03/19 01:38:18;;;;;;;1.40;0.70;;;11.80;99.90;;;;;;6119280;23;20179;-93
2022/03/19 01:43:39;;;;;;;2.83;0.97;;;11.60;99.90;;;;;;6115796;23;20186;-93
2022/03/19 01:46:13;;;;;;;1.57;1.00;;;11.50;99.90;;;;;;6094331;23;20199;-92
2022/03/19 01:51:35;;;;;;;2.93;1.00;;;11.40;99.90;;;;;;6205221;23;20223;-91
2022/03/19 01:54:06;;;;;;;1.80;1.20;;;11.40;99.90;;;;;;6206847;23;20171;-91
2022/03/19 01:56:39;;;;;;;1.90;1.17;;;11.30;99.90;;;;;;6206691;23;20169;-92
2022/03/19 01:59:10;;;;;;;2.87;1.00;;;11.30;99.90;;;;;;6207108;23;20176;-91
2022/03/19 02:10:00;;;;;;;4.93;1.10;;;11.20;99.90;;;;;;6156159;23;20245;-92
2022/03/19 02:12:33;;;;;;;1.93;1.00;;;11.20;99.90;;;;;;6148167;23;20170;-92
2022/03/19 02:15:06;;;;;;;2.23;1.17;;;11.20;99.90;;;;;;6125903;23;20170;-93
2022/03/19 02:17:39;;;;;;;2.13;1.20;;;11.10;99.90;;;;;;6146681;23;20186;-92
2022/03/19 02:20:21;;;;;;;3.13;1.30;;;11.10;99.90;;;;;;6145326;23;20239;-90
2022/03/19 02:25:42;;;;;;;2.40;0.87;;;10.90;99.90;;;;;;6097636;23;20206;-92
2022/03/19 02:28:14;;;;;;;1.63;1.20;;;11.00;99.90;;;;;;6121073;23;20171;-93
2022/03/19 02:30:46;;;;;;;1.57;1.07;;;11.00;99.90;;;;;;6144999;23;20222;-93
2022/03/19 02:33:19;;;;;;;1.80;1.10;;;10.90;99.90;;;;;;6151324;23;20185;-93
2022/03/19 02:35:50;;;;;;;1.40;0.97;;;10.80;99.90;;;;;;6151424;23;20288;-92
2022/03/19 02:38:24;;;;;;;1.93;1.10;;;10.60;99.90;;;;;;6149987;23;20218;-92
2022/03/19 02:43:37;;;;;;;0.80;0.70;;;10.40;99.90;;;;;;6143804;23;20289;-90
2022/03/19 02:46:08;;;;;;;1.80;0.90;;;10.20;99.90;;;;;;6147623;23;20210;-89
2022/03/19 02:48:39;;;;;;;1.83;1.17;;;10.20;99.90;;;;;;6142672;23;20685;-91
2022/03/19 02:51:13;;;;;;;8.00;3.43;;;10.10;99.90;;;;;;6139652;23;20182;-93
2022/03/19 02:53:47;;;;;;;2.60;1.20;;;10.10;99.90;;;;;;6145275;23;20170;-92
2022/03/19 02:56:18;;;;;;;1.53;1.00;;;10.10;99.90;;;;;;6142243;23;20182;-90
2022/03/19 02:58:50;;;;;;;1.33;1.00;;;10.00;99.90;;;;;;6132772;23;20171;-92
2022/03/19 03:01:20;;;;;;;1.73;1.07;;;10.00;99.90;;;;;;6134548;23;20573;-91
2022/03/19 03:03:52;;;;;;;2.30;1.60;;;10.00;99.90;;;;;;6135475;23;20173;-91
2022/03/19 03:06:23;;;;;;;2.20;1.40;;;9.90;99.90;;;;;;6114649;23;20198;-92
2022/03/19 03:08:56;;;;;;;2.67;1.40;;;9.90;99.90;;;;;;6138873;23;20178;-92
2022/03/19 03:11:27;;;;;;;5.17;1.87;;;9.90;99.90;;;;;;6123138;23;20497;-92
2022/03/19 03:14:00;;;;;;;8.17;3.23;;;9.90;99.90;;;;;;6147412;23;20167;-93
2022/03/19 03:24:51;;;;;;;2.57;1.90;;;9.80;99.90;;;;;;6121182;23;20226;-92
2022/03/19 03:27:24;;;;;;;1.97;1.60;;;9.80;99.90;;;;;;6115780;23;20191;-92
2022/03/19 03:30:10;;;;;;;3.33;1.80;;;9.90;99.90;;;;;;6118379;23;20206;-91
2022/03/19 03:32:41;;;;;;;2.87;1.60;;;9.90;99.90;;;;;;6119984;23;20467;-91
2022/03/19 03:35:12;;;;;;;2.53;1.33;;;9.80;99.90;;;;;;6117425;23;20190;-92
2022/03/19 03:37:43;;;;;;;2.10;1.50;;;9.90;99.90;;;;;;6113049;23;20167;-92
2022/03/19 03:40:18;;;;;;;3.07;1.93;;;9.80;99.90;;;;;;6112251;23;20162;-92
2022/03/19 03:42:53;;;;;;;1.60;1.50;;;9.80;99.90;;;;;;6120424;23;20190;-93
2022/03/19 03:45:26;;;;;;;2.83;1.43;;;10.00;99.90;;;;;;6115560;23;20190;-91
2022/03/19 03:47:57;;;;;;;2.67;1.40;;;9.90;99.90;;;;;;6116401;23;20187;-91
2022/03/19 03:50:30;;;;;;;2.60;1.20;;;9.90;99.90;;;;;;6114274;23;20178;-92
2022/03/19 03:53:02;;;;;;;2.23;1.30;;;9.90;99.90;;;;;;6114666;23;20171;-92
2022/03/19 03:55:37;;;;;;;2.30;1.50;;;9.90;99.90;;;;;;6109438;23;20207;-92
2022/03/19 03:58:09;;;;;;;4.07;1.20;;;9.90;99.90;;;;;;6108603;23;20168;-93
2022/03/19 04:00:41;;;;;;;4.17;1.57;;;10.00;99.90;;;;;;6110571;23;20172;-92
2022/03/19 04:03:18;;;;;;;2.30;1.40;;;10.00;99.90;;;;;;6117661;23;20164;-92
2022/03/19 04:06:08;;;;;;;3.40;1.60;;;10.00;99.90;;;;;;6114686;23;20234;-93
2022/03/19 04:08:53;;;;;;;2.43;1.40;;;9.90;99.90;;;;;;6113686;23;20254;-93
2022/03/19 04:11:28;;;;;;;3.33;1.77;;;10.00;99.90;;;;;;6119570;23;20242;-92
2022/03/19 04:14:04;;;;;;;1.27;1.17;;;9.90;99.90;;;;;;6124687;23;20167;-92
2022/03/19 04:16:37;;;;;;;1.90;1.40;;;9.90;99.90;;;;;;6122280;23;20187;-92
2022/03/19 04:19:08;;;;;;;2.97;1.23;;;9.90;99.90;;;;;;6116975;23;20183;-92
2022/03/19 04:21:47;;;;;;;1.60;1.40;;;9.90;99.90;;;;;;6121741;23;20209;-92
2022/03/19 04:24:19;;;;;;;2.00;1.40;;;9.90;99.90;;;;;;6124485;23;20191;-91
2022/03/19 04:26:53;;;;;;;2.20;1.10;;;9.90;99.90;;;;;;6125020;23;20226;-92
2022/03/19 04:29:24;;;;;;;2.30;1.33;;;9.90;99.90;;;;;;6124257;23;20171;-90
2022/03/19 04:31:56;;;;;;;1.33;1.20;;;9.90;99.90;;;;;;6148598;23;20206;-91
2022/03/19 04:34:27;;;;;;;2.83;1.60;;;9.90;99.90;;;;;;6153411;23;20173;-91
2022/03/19 04:36:58;;;;;;;1.83;1.37;;;9.80;99.90;;;;;;6153997;23;20173;-95
2022/03/19 04:39:29;;;;;;;2.80;1.43;;;9.80;99.90;;;;;;6153611;23;20166;-93
2022/03/19 04:42:03;;;;;;;4.30;1.50;;;9.70;99.90;;;;;;6153738;23;20174;-92
2022/03/19 04:44:34;;;;;;;2.20;1.60;;;9.60;99.90;;;;;;6153681;23;20193;-91
2022/03/19 04:52:22;;;;;;;2.77;1.23;;;9.50;99.90;;;;;;6140234;23;20237;-92
2022/03/19 04:54:57;;;;;;;2.17;1.50;;;9.40;99.90;;;;;;6150891;23;20168;-93
2022/03/19 04:57:31;;;;;;;3.93;2.00;;;9.40;99.90;;;;;;6128046;23;20182;-91
2022/03/19 05:00:02;;;;;;;4.37;1.77;;;9.40;99.90;;;;;;6152012;23;20166;-93
2022/03/19 05:02:33;;;;;;;3.50;2.00;;;9.40;99.90;;;;;;6151652;23;20189;-94
2022/03/19 05:05:05;;;;;;;4.40;2.00;;;9.30;99.90;;;;;;6150855;23;20166;-93
2022/03/19 05:07:37;;;;;;;2.23;1.63;;;9.20;99.90;;;;;;6151605;23;20259;-93
2022/03/19 05:15:42;;;;;;;5.83;2.30;;;9.20;99.90;;;;;;6113407;23;20202;-93
2022/03/19 05:18:14;;;;;;;5.50;2.80;;;9.20;99.90;;;;;;6118121;23;20575;-93
2022/03/19 05:20:46;;;;;;;5.83;2.67;;;9.10;99.90;;;;;;6120553;23;20171;-93
2022/03/19 05:23:18;;;;;;;3.53;2.70;;;9.00;99.90;;;;;;6119646;23;20180;-94
2022/03/19 05:25:50;;;;;;;5.43;2.60;;;9.10;99.90;;;;;;6118634;23;20179;-93
2022/03/19 05:28:21;;;;;;;6.63;3.93;;;9.10;99.90;;;;;;6115468;23;20210;-93
2022/03/19 05:31:00;;;;;;;2.80;1.90;;;9.10;99.90;;;;;;6117099;23;20180;-92
2022/03/19 05:36:20;;;;;;;3.97;2.00;;;8.90;99.90;;;;;;6116551;23;20181;-93
2022/03/19 05:38:53;;;;;;;3.13;2.33;;;8.80;99.90;;;;;;6117462;23;20316;-93
2022/03/19 05:41:25;;;;;;;5.53;2.67;;;8.80;99.90;;;;;;6116396;23;20190;-93
2022/03/19 05:43:58;;;;;;;2.83;2.37;;;8.80;99.90;;;;;;6116179;23;20167;-93
2022/03/19 05:46:32;;;;;;;3.17;2.53;;;8.70;99.90;;;;;;6116331;23;20179;-93
2022/03/19 05:49:03;;;;;;;3.80;2.37;;;8.70;99.90;;;;;;6110629;23;20235;-93
2022/03/19 05:51:34;;;;;;;5.07;2.70;;;8.70;99.90;;;;;;6111160;23;20195;-92
2022/03/19 05:54:07;;;;;;;4.43;2.47;;;8.70;99.90;;;;;;6118491;23;20208;-93
2022/03/19 05:56:38;;;;;;;3.43;2.30;;;8.60;99.90;;;;;;6113683;23;20179;-93
2022/03/19 05:59:09;;;;;;;4.87;2.93;;;8.60;99.90;;;;;;6112392;23;20193;-92
2022/03/19 06:01:43;;;;;;;5.07;2.67;;;8.60;99.90;;;;;;6111869;23;20179;-92
2022/03/19 06:04:15;;;;;;;4.07;2.80;;;8.60;99.90;;;;;;6114838;23;20186;-91
2022/03/19 06:06:47;;;;;;;5.20;2.70;;;8.60;99.90;;;;;;6109321;23;20562;-92
2022/03/19 06:09:18;;;;;;;3.43;2.70;;;8.60;99.90;;;;;;6103340;23;20641;-92
2022/03/19 06:11:49;;;;;;;4.90;3.00;;;8.60;99.90;;;;;;6104401;23;20180;-92
2022/03/19 06:14:21;;;;;;;4.03;3.20;;;8.60;99.90;;;;;;6119198;23;20197;-93
2022/03/19 06:16:54;;;;;;;5.10;3.20;;;8.60;99.90;;;;;;6107970;23;20179;-92
2022/03/19 06:19:26;;;;;;;4.50;2.97;;;8.60;99.90;;;;;;6104682;23;20226;-93
2022/03/19 06:21:57;;;;;;;5.30;2.90;;;8.60;99.90;;;;;;6112573;23;20256;-93
2022/03/19 06:24:32;;;;;;;3.23;2.60;;;8.60;99.90;;;;;;6115821;23;20199;-93
2022/03/19 06:27:06;;;;;;;7.23;3.13;;;8.60;99.90;;;;;;6113753;23;20186;-91
2022/03/19 06:29:37;;;;;;;4.30;2.90;;;8.50;99.90;;;;;;6108932;23;20211;-91
2022/03/19 06:32:10;;;;;;;3.73;2.77;;;8.50;99.90;;;;;;6103134;23;20179;-92
2022/03/19 06:34:41;;;;;;;3.83;2.80;;;8.50;99.90;;;;;;6103524;23;20550;-92
2022/03/19 06:37:20;;;;;;;4.37;2.47;;;8.50;99.90;;;;;;6102651;23;20178;-93
2022/03/19 06:39:54;;;;;;;3.87;2.30;;;8.50;99.90;;;;;;6106442;23;20302;-94
2022/03/19 06:42:28;;;;;;;3.80;2.47;;;8.40;99.90;;;;;;6109326;23;20175;-91
2022/03/19 06:45:00;;;;;;;4.80;2.70;;;8.40;99.90;;;;;;6130094;23;20221;-92
2022/03/19 06:47:34;;;;;;;6.60;2.93;;;8.40;99.90;;;;;;6132445;23;20194;-89
2022/03/19 06:50:05;;;;;;;6.10;2.90;;;8.40;99.90;;;;;;6132802;23;20197;-91
2022/03/19 06:52:36;;;;;;;4.33;2.53;;;8.50;99.90;;;;;;6133159;23;20617;-92
2022/03/19 06:55:09;;;;;;;4.93;2.60;;;8.50;99.90;;;;;;6133584;23;20216;-92
2022/03/19 06:57:40;;;;;;;4.73;2.17;;;8.40;99.90;;;;;;6139748;23;20578;-93
2022/03/19 07:00:12;;;;;;;4.97;2.30;;;8.40;99.90;;;;;;6141240;23;20171;-93
2022/03/19 07:02:52;;;;;;;2.37;2.17;;;8.40;99.90;;;;;;6134934;23;20225;-93
2022/03/19 07:05:24;;;;;;;3.73;2.60;;;8.40;99.90;;;;;;6151171;23;20175;-93
2022/03/19 07:07:57;;;;;;;3.67;2.30;;;8.40;99.90;;;;;;6150355;23;20225;-93
2022/03/19 07:10:29;;;;;;;4.53;2.40;;;8.40;99.90;;;;;;6150557;23;20159;-93
2022/03/19 07:13:06;;;;;;;4.70;2.23;;;8.50;99.90;;;;;;6146728;23;20229;-93
2022/03/19 07:15:36;;;;;;;5.20;2.60;;;8.50;99.90;;;;;;6145143;23;20178;-93
2022/03/19 07:18:10;;;;;;;5.07;2.17;;;8.50;99.90;;;;;;6137834;23;20499;-93
2022/03/19 07:20:41;;;;;;;3.67;2.40;;;8.50;99.90;;;;;;6139636;23;20242;-93
2022/03/19 07:23:13;;;;;;;4.90;2.53;;;8.50;99.90;;;;;;6132160;23;20245;-92
2022/03/19 07:25:45;;;;;;;4.50;2.97;;;8.50;99.90;;;;;;6132174;23;20171;-93
2022/03/19 07:28:18;;;;;;;5.93;3.10;;;8.50;99.90;;;;;;6131119;23;20206;-93
2022/03/19 07:30:50;;;;;;;4.13;3.33;;;8.50;99.90;;;;;;6130815;23;20202;-93
2022/03/19 07:33:27;;;;;;;4.53;2.97;;;8.50;99.90;;;;;;6135767;23;20166;-92
2022/03/19 07:35:58;;;;;;;6.73;3.47;;;8.50;99.90;;;;;;6151584;23;20174;-93
2022/03/19 07:38:30;;;;;;;4.00;2.73;;;8.50;99.90;;;;;;6150691;23;20185;-94
2022/03/19 07:43:49;;;;;;;3.63;2.90;;;8.50;99.90;;;;;;6152276;23;20179;-93
2022/03/19 07:46:20;;;;;;;3.07;2.60;;;8.50;99.90;;;;;;6152147;23;20182;-93
2022/03/19 07:48:53;;;;;;;2.87;2.30;;;8.50;99.90;;;;;;6140288;23;20266;-92
2022/03/19 07:51:24;;;;;;;6.83;2.73;;;8.50;99.90;;;;;;6133452;23;20190;-93
2022/03/19 07:53:56;;;;;;;2.83;2.47;;;8.60;99.90;;;;;;6133553;23;20170;-92
2022/03/19 07:56:32;;;;;;;3.67;2.73;;;8.60;99.90;;;;;;6133954;23;20170;-93
2022/03/19 07:59:03;;;;;;;3.17;2.50;;;8.60;99.90;;;;;;6090001;23;20173;-92
2022/03/19 08:01:35;;;;;;;5.23;2.60;;;8.60;99.90;;;;;;6142423;23;20216;-93
2022/03/19 08:04:14;;;;;;;3.20;2.60;;;8.50;99.90;;;;;;6137012;23;20181;-93
2022/03/19 08:06:45;;;;;;;3.17;2.60;;;8.40;99.90;;;;;;6141262;23;20260;-93
2022/03/19 08:09:17;;;;;;;3.20;2.20;;;8.50;99.90;;;;;;6138514;23;20198;-93
2022/03/19 08:11:49;;;;;;;3.87;2.47;;;8.40;99.90;;;;;;6139370;23;20617;-93
2022/03/19 08:14:21;;;;;;;2.90;2.13;;;8.40;99.90;;;;;;6147548;23;20178;-94
2022/03/19 08:16:52;;;;;;;6.17;2.47;;;8.50;99.90;;;;;;6152883;23;20190;-94
2022/03/19 08:19:28;;;;;;;4.73;2.53;;;8.50;99.90;;;;;;6152215;23;20182;-91
2022/03/19 08:22:20;;;;;;;3.00;2.20;;;8.50;99.90;;;;;;6152780;23;20177;-93
2022/03/19 08:24:51;;;;;;;5.00;2.20;;;8.50;99.90;;;;;;6152350;23;20174;-93
2022/03/19 08:27:23;;;;;;;3.07;2.10;;;8.50;99.90;;;;;;6148927;23;20218;-93
2022/03/19 08:29:53;;;;;;;7.00;2.50;;;8.50;99.90;;;;;;6132779;23;20265;-94
2022/03/19 08:32:25;;;;;;;3.67;2.10;;;8.50;99.90;;;;;;6107451;23;20171;-94
2022/03/19 08:34:57;;;;;;;3.93;2.30;;;8.50;99.90;;;;;;6133850;23;20167;-93
2022/03/19 08:37:28;;;;;;;2.60;2.20;;;8.40;99.90;;;;;;6132795;23;20234;-93
2022/03/19 08:40:16;;;;;;;6.13;2.40;;;8.40;99.90;;;;;;6133278;23;20262;-94
2022/03/19 08:42:51;;;;;;;2.93;2.30;;;8.40;99.90;;;;;;6133490;23;20183;-92
2022/03/19 08:45:23;;;;;;;3.57;2.20;;;8.40;99.90;;;;;;6134959;23;20516;-92
2022/03/19 08:47:53;;;;;;;3.83;2.53;;;8.40;99.90;;;;;;6133769;23;20182;-92
2022/03/19 08:50:27;;;;;;;3.13;2.23;;;8.40;99.90;;;;;;6138156;23;20205;-92
2022/03/19 08:52:58;;;;;;;2.67;2.33;;;8.40;99.90;;;;;;6138152;23;20174;-92
2022/03/19 08:55:29;;;;;;;2.73;2.00;;;8.40;99.90;;;;;;6147952;23;20189;-91
2022/03/19 08:58:00;;;;;;;4.70;2.60;;;8.40;99.90;;;;;;6148614;23;20178;-92
2022/03/19 09:00:31;;;;;;;2.30;2.03;;;8.30;99.90;;;;;;6139085;23;20194;-92
2022/03/19 09:03:02;;;;;;;2.30;2.10;;;8.30;99.90;;;;;;6135546;23;20222;-92
2022/03/19 09:05:36;;;;;;;4.53;2.27;;;8.20;99.90;;;;;;6133329;23;20287;-91
2022/03/19 09:08:07;;;;;;;3.27;1.97;;;8.30;99.90;;;;;;6133611;23;20183;-92
2022/03/19 09:10:38;;;;;;;2.77;1.57;;;8.30;99.90;;;;;;6133756;23;20170;-91
2022/03/19 09:13:08;;;;;;;2.90;1.60;;;8.20;99.90;;;;;;6131380;23;20182;-91
2022/03/19 09:15:39;;;;;;;1.90;1.63;;;8.30;99.90;;;;;;6131866;23;20200;-92
2022/03/19 09:18:11;;;;;;;1.77;1.53;;;8.30;99.90;;;;;;6134805;23;20233;-92
2022/03/19 09:20:45;;;;;;;2.13;1.93;;;8.30;99.90;;;;;;6132870;23;20166;-92
2022/03/19 09:23:16;;;;;;;2.43;1.60;;;8.30;99.90;;;;;;6141370;23;20189;-91
2022/03/19 09:25:47;;;;;;;4.00;1.70;;;8.30;99.90;;;;;;6128417;23;20193;-93
2022/03/19 09:28:18;;;;;;;3.43;1.80;;;8.30;99.90;;;;;;6151327;23;20186;-92
2022/03/19 09:30:50;;;;;;;1.57;1.47;;;8.30;99.90;;;;;;6135870;23;20179;-93
2022/03/19 09:33:22;;;;;;;1.90;1.70;;;8.40;99.90;;;;;;6135484;23;20225;-92
2022/03/19 09:35:57;;;;;;;3.00;1.80;;;8.30;99.90;;;;;;6136025;23;20174;-92
2022/03/19 09:41:33;;;;;;;2.30;1.80;;;8.30;99.90;;;;;;6135798;23;20194;-92
2022/03/19 09:44:04;;;;;;;1.80;1.37;;;8.30;99.90;;;;;;6132133;23;20190;-91
2022/03/19 09:46:37;;;;;;;1.73;1.40;;;8.30;99.90;;;;;;6109496;23;20202;-92
2022/03/19 09:49:08;;;;;;;2.57;1.40;;;8.30;99.90;;;;;;6131103;23;20220;-92
2022/03/19 09:51:44;;;;;;;1.93;1.50;;;8.30;99.90;;;;;;6133973;23;20617;-92
2022/03/19 09:54:15;;;;;;;2.23;2.03;;;8.30;99.90;;;;;;6130937;23;20166;-92
2022/03/19 09:56:46;;;;;;;2.83;1.90;;;8.30;99.90;;;;;;6131505;23;20197;-92
2022/03/19 09:59:17;;;;;;;2.23;1.20;;;8.30;99.90;;;;;;6130709;23;20206;-92
2022/03/19 10:01:48;;;;;;;1.80;1.43;;;8.30;99.90;;;;;;6131694;23;20162;-92
2022/03/19 10:04:20;;;;;;;2.07;1.50;;;8.30;99.90;;;;;;6106317;23;20174;-92
2022/03/19 10:09:45;;;;;;;2.60;1.57;;;8.20;99.90;;;;;;6130275;23;20222;-93
2022/03/19 10:12:18;;;;;;;2.53;1.93;;;8.20;99.90;;;;;;6130891;23;20170;-93
2022/03/19 10:14:51;;;;;;;4.03;1.80;;;8.20;99.90;;;;;;6131499;23;20605;-93
2022/03/19 10:17:29;;;;;;;3.93;2.17;;;8.30;99.90;;;;;;6130577;23;20219;-93
2022/03/19 10:20:02;;;;;;;1.90;1.80;;;8.30;99.90;;;;;;6132397;23;20175;-93
2022/03/19 10:22:36;;;;;;;2.40;1.53;;;8.30;99.90;;;;;;6131853;23;20205;-92
2022/03/19 10:25:11;;;;;;;2.47;1.70;;;8.20;99.90;;;;;;6135027;23;20182;-92
2022/03/19 10:27:44;;;;;;;2.47;1.40;;;8.20;99.90;;;;;;6146689;23;20166;-93
2022/03/19 10:30:16;;;;;;;2.73;1.67;;;8.30;99.90;;;;;;6148431;23;20206;-93
2022/03/19 10:32:51;;;;;;;1.90;1.60;;;8.20;99.90;;;;;;6136013;23;20487;-93
2022/03/19 10:35:27;;;;;;;4.20;1.63;;;8.30;99.90;;;;;;6106779;23;20245;-94
2022/03/19 10:38:03;;;;;;;2.60;1.90;;;8.30;99.90;;;;;;6130387;23;20607;-93
2022/03/19 10:40:41;;;;;;;2.03;1.83;;;8.30;99.90;;;;;;6132814;23;20193;-93
2022/03/19 10:43:14;;;;;;;3.17;1.97;;;8.20;99.90;;;;;;6131454;23;20174;-93
2022/03/19 10:45:46;;;;;;;2.87;1.90;;;8.20;99.90;;;;;;6130917;23;20206;-92
2022/03/19 10:48:21;;;;;;;2.17;1.90;;;8.20;99.90;;;;;;6130240;23;20225;-92
2022/03/19 10:50:53;;;;;;;3.57;2.17;;;8.20;99.90;;;;;;6130821;23;20205;-92
2022/03/19 10:53:27;;;;;;;2.10;1.87;;;8.20;99.90;;;;;;6130725;23;20185;-93
2022/03/19 10:55:59;;;;;;;3.20;2.00;;;8.20;99.90;;;;;;6130719;23;20637;-92
2022/03/19 10:58:29;;;;;;;2.30;1.83;;;8.20;99.90;;;;;;6104613;23;20537;-93
2022/03/19 11:01:09;;;;;;;2.53;1.83;;;8.20;99.90;;;;;;6129906;23;20178;-93
2022/03/19 11:03:42;;;;;;;4.63;1.77;;;8.20;99.90;;;;;;6130252;23;20577;-92
2022/03/19 11:06:14;;;;;;;3.23;1.90;;;8.20;99.90;;;;;;6130263;23;20198;-93
2022/03/19 11:08:48;;;;;;;2.70;1.87;;;8.20;99.90;;;;;;6133131;23;20170;-92
2022/03/19 11:11:21;;;;;;;3.40;1.50;;;8.10;99.90;;;;;;6130084;23;20213;-92
2022/03/19 11:13:54;;;;;;;2.80;1.47;;;8.10;99.90;;;;;;6130671;23;20626;-94
2022/03/19 11:16:27;;;;;;;1.90;1.47;;;8.10;99.90;;;;;;6131574;23;20171;-92
2022/03/19 11:19:00;;;;;;;2.13;1.77;;;8.10;99.90;;;;;;6135416;23;20529;-93
2022/03/19 11:21:34;;;;;;;2.57;1.60;;;8.00;99.90;;;;;;6130921;23;20957;-93
2022/03/19 11:24:14;;;;;;;4.07;2.13;;;8.00;99.90;;;;;;6133259;23;20179;-94
2022/03/19 11:26:45;;;;;;;2.93;1.90;;;8.10;99.90;;;;;;6132844;23;20173;-93
2022/03/19 11:29:17;;;;;;;2.93;1.90;;;8.00;99.90;;;;;;6132279;23;20186;-93
2022/03/19 11:31:59;;;;;;;4.23;1.60;;;8.00;99.90;;;;;;6132797;23;20226;-93
2022/03/19 11:34:44;;;;;;;3.17;1.90;;;8.00;99.90;;;;;;6133195;23;20171;-93
2022/03/19 11:37:16;;;;;;;1.77;1.53;;;8.00;99.90;;;;;;6151932;23;20196;-93
2022/03/19 11:40:28;;;;;;;4.07;2.00;;;8.10;99.90;;;;;;6128378;23;20169;-94
2022/03/19 11:43:32;;;;;;;3.07;1.70;;;8.10;99.90;;;;;;6138624;23;20201;-92
2022/03/19 11:46:04;;;;;;;3.07;1.70;;;8.00;99.90;;;;;;6133604;23;20194;-91
2022/03/19 11:48:47;;;;;;;2.70;1.30;;;8.00;99.90;;;;;;6133055;23;20655;-94
2022/03/19 11:51:20;;;;;;;4.03;2.00;;;8.10;99.90;;;;;;6135704;23;20206;-93
2022/03/19 11:53:55;;;;;;;3.87;1.80;;;8.10;99.90;;;;;;6108534;23;20170;-92
2022/03/19 11:56:29;;;;;;;4.43;1.53;;;8.10;99.90;;;;;;6133515;23;20245;-93
2022/03/19 11:59:04;;;;;;;2.33;1.57;;;8.00;99.90;;;;;;6131607;23;20178;-93
2022/03/19 12:01:49;;;;;;;3.40;1.47;;;8.00;99.90;;;;;;6132452;23;20183;-92
2022/03/19 12:04:21;;;;;;;3.23;1.53;;;8.00;99.90;;;;;;6132629;23;20194;-92
2022/03/19 12:06:55;;;;;;;4.60;1.60;;;7.90;99.90;;;;;;6132107;23;20201;-93
2022/03/19 12:09:34;;;;;;;2.93;1.53;;;8.00;99.90;;;;;;6132007;23;20182;-93
2022/03/19 12:12:26;;;;;;;2.27;1.30;;;7.90;99.90;;;;;;6132355;23;20167;-90
2022/03/19 12:14:59;;;;;;;3.20;1.53;;;7.90;99.90;;;;;;6132743;23;20173;-93
2022/03/19 12:17:33;;;;;;;1.57;1.30;;;7.80;99.90;;;;;;6131921;23;20202;-91
2022/03/19 12:20:07;;;;;;;3.00;1.43;;;7.80;99.90;;;;;;6108012;23;20175;-92
2022/03/19 12:22:41;;;;;;;2.47;1.50;;;7.80;99.90;;;;;;6132863;23;20180;-91
2022/03/19 12:25:16;;;;;;;4.33;1.40;;;7.80;99.90;;;;;;6132827;23;20170;-91
2022/03/19 12:27:53;;;;;;;3.00;1.97;;;7.90;99.90;;;;;;6131488;23;20641;-92
2022/03/19 12:30:28;;;;;;;2.30;1.40;;;7.90;99.90;;;;;;6132212;23;20610;-92
2022/03/19 12:33:00;;;;;;;3.17;1.33;;;7.90;99.90;;;;;;6132549;23;20317;-91
2022/03/19 12:35:41;;;;;;;4.10;1.67;;;7.90;99.90;;;;;;6133977;23;20182;-92
2022/03/19 12:38:24;;;;;;;1.73;1.07;;;7.80;99.90;;;;;;6131313;23;20184;-91
2022/03/19 12:43:42;;;;;;;1.97;1.20;;;7.80;99.90;;;;;;6132472;23;20218;-92
2022/03/19 12:46:24;;;;;;;3.03;1.70;;;7.70;99.90;;;;;;6131301;23;20230;-92
2022/03/19 12:49:04;;;;;;;5.77;1.50;;;7.70;99.90;;;;;;6107716;23;20182;-93
2022/03/19 12:51:36;;;;;;;4.87;1.80;;;7.70;99.90;;;;;;6134238;23;20217;-92
2022/03/19 12:54:19;;;;;;;3.13;2.50;;;7.70;99.90;;;;;;6123734;23;20166;-93
2022/03/19 12:56:52;;;;;;;2.57;2.07;;;7.70;99.90;;;;;;6128269;23;20235;-92
2022/03/19 12:59:25;;;;;;;4.17;1.80;;;7.70;99.90;;;;;;6152105;23;20169;-92
2022/03/19 13:01:58;;;;;;;4.27;2.17;;;7.70;99.90;;;;;;6153598;23;20169;-90
2022/03/19 13:04:31;;;;;;;3.13;2.20;;;7.60;99.90;;;;;;6144779;23;20171;-92
2022/03/19 13:07:07;;;;;;;2.53;1.87;;;7.60;99.90;;;;;;6132562;23;20181;-93
2022/03/19 13:09:40;;;;;;;5.47;2.20;;;7.60;99.90;;;;;;6132768;23;20173;-92
2022/03/19 13:12:17;;;;;;;3.83;1.93;;;7.60;99.90;;;;;;6132227;23;20203;-91
2022/03/19 13:14:52;;;;;;;2.43;1.70;;;7.60;99.90;;;;;;6133538;23;20177;-92
2022/03/19 13:17:26;;;;;;;1.77;1.27;;;7.60;99.90;;;;;;6107073;23;20182;-92
2022/03/19 13:20:09;;;;;;;2.37;2.17;;;7.50;99.90;;;;;;6132572;23;20207;-91
2022/03/19 13:22:41;;;;;;;1.80;1.10;;;7.50;99.90;;;;;;6132555;23;20217;-92
2022/03/19 13:25:12;;;;;;;1.50;1.20;;;7.50;99.90;;;;;;6131679;23;20186;-92
2022/03/19 13:27:43;;;;;;;1.90;1.30;;;7.50;99.90;;;;;;6130860;23;20254;-92
2022/03/19 13:30:15;;;;;;;1.90;1.20;;;7.40;99.90;;;;;;6132062;23;20190;-91
2022/03/19 13:32:48;;;;;;;0.90;0.90;;;7.50;99.90;;;;;;6132758;23;20493;-93
2022/03/19 13:35:37;;;;;;;1.50;1.00;;;7.40;99.90;;;;;;6131995;23;20166;-92
2022/03/19 13:38:14;;;;;;;1.20;1.10;;;7.40;99.90;;;;;;6131068;23;20223;-93
2022/03/19 13:40:50;;;;;;;1.03;0.97;;;7.40;99.90;;;;;;6131816;23;20202;-93
2022/03/19 13:43:22;;;;;;;1.27;1.17;;;7.40;99.90;;;;;;6132290;23;20173;-93
2022/03/19 13:46:14;;;;;;;1.27;1.00;;;7.40;99.90;;;;;;6116843;23;20173;-92
2022/03/19 13:48:49;;;;;;;2.60;1.23;;;7.40;99.90;;;;;;6151190;23;20178;-93
2022/03/19 13:51:20;;;;;;;3.33;1.00;;;7.40;99.90;;;;;;6153282;23;20213;-92
2022/03/19 13:53:54;;;;;;;1.17;0.90;;;7.40;99.90;;;;;;6152876;23;20211;-88
2022/03/19 13:56:26;;;;;;;2.90;1.30;;;7.40;99.90;;;;;;6149975;23;20175;-91
2022/03/19 13:59:09;;;;;;;1.40;1.20;;;7.40;99.90;;;;;;6146697;23;20182;-92
2022/03/19 14:01:41;;;;;;;2.03;1.40;;;7.40;99.90;;;;;;6116765;23;20171;-93
2022/03/19 14:04:22;;;;;;;1.37;1.23;;;7.40;99.90;;;;;;6136488;23;20174;-93
2022/03/19 14:06:53;;;;;;;1.90;1.53;;;7.30;99.90;;;;;;6137404;23;20210;-93
2022/03/19 14:09:24;;;;;;;2.70;1.10;;;7.30;99.90;;;;;;6140443;23;20198;-93
2022/03/19 14:11:58;;;;;;;2.10;1.13;;;7.30;99.90;;;;;;6135053;23;20195;-93
2022/03/19 14:14:38;;;;;;;1.93;1.20;;;7.30;99.90;;;;;;6111536;23;20178;-93
2022/03/19 14:17:09;;;;;;;1.20;1.10;;;7.30;99.90;;;;;;6108581;23;20214;-92
2022/03/19 14:19:42;;;;;;;1.47;1.03;;;7.30;99.90;;;;;;6140950;23;20208;-91
2022/03/19 14:22:13;;;;;;;4.43;1.40;;;7.30;99.90;;;;;;6123118;23;20160;-92
2022/03/19 14:24:45;;;;;;;2.60;1.30;;;7.30;99.90;;;;;;6149844;23;20170;-91